sensor_id;sensor_type;location;lat;lon;timestamp;pressure;altitude;pressure_sealevel;temperature;humidity
56142;BME280;42018;48.588;10.836;2023-04-20T00:00:22;96718.38;;;6.48;78.31
56142;BME280;42018;48.588;10.836;2023-04-20T00:03:07;96712.50;;;6.58;78.26
56142;BME280;42018;48.588;10.836;2023-04-20T00:05:53;96707.06;;;6.48;78.58
56142;BME280;42018;48.588;10.836;2023-04-20T00:08:38;96699.56;;;6.40;78.57
56142;BME280;42018;48.588;10.836;2023-04-20T00:11:24;96698.59;;;6.29;78.84
56142;BME280;42018;48.588;10.836;2023-04-20T00:14:10;96689.75;;;6.35;79.45
56142;BME280;42018;48.588;10.836;2023-04-20T00:16:55;96677.06;;;6.49;78.73
56142;BME280;42018;48.588;10.836;2023-04-20T00:19:41;96681.94;;;6.40;78.07
56142;BME280;42018;48.588;10.836;2023-04-20T00:22:26;96676.09;;;6.21;78.46
56142;BME280;42018;48.588;10.836;2023-04-20T00:25:12;96673.00;;;6.24;79.83
56142;BME280;42018;48.588;10.836;2023-04-20T00:27:57;96666.06;;;6.35;79.27
56142;BME280;42018;48.588;10.836;2023-04-20T00:30:43;96663.13;;;6.32;78.36
56142;BME280;42018;48.588;10.836;2023-04-20T00:33:28;96662.66;;;6.35;78.88
56142;BME280;42018;48.588;10.836;2023-04-20T00:36:13;96653.88;;;6.29;79.46
56142;BME280;42018;48.588;10.836;2023-04-20T00:38:59;96645.91;;;6.24;79.89
56142;BME280;42018;48.588;10.836;2023-04-20T00:41:45;96642.06;;;6.32;79.16
56142;BME280;42018;48.588;10.836;2023-04-20T00:44:32;96653.78;;;6.41;79.39
56142;BME280;42018;48.588;10.836;2023-04-20T00:47:18;96653.22;;;6.39;77.53
56142;BME280;42018;48.588;10.836;2023-04-20T00:50:03;96640.81;;;6.34;78.64
56142;BME280;42018;48.588;10.836;2023-04-20T00:52:49;96634.91;;;6.44;77.95
56142;BME280;42018;48.588;10.836;2023-04-20T00:55:34;96647.00;;;6.45;77.46
56142;BME280;42018;48.588;10.836;2023-04-20T00:58:20;96640.66;;;6.41;77.49
56142;BME280;42018;48.588;10.836;2023-04-20T01:01:06;96629.97;;;6.31;77.26
56142;BME280;42018;48.588;10.836;2023-04-20T01:03:52;96631.78;;;6.13;77.41
56142;BME280;42018;48.588;10.836;2023-04-20T01:06:38;96632.66;;;6.19;78.65
56142;BME280;42018;48.588;10.836;2023-04-20T01:09:23;96624.78;;;6.02;77.65
56142;BME280;42018;48.588;10.836;2023-04-20T01:12:09;96624.00;;;5.90;78.13
56142;BME280;42018;48.588;10.836;2023-04-20T01:14:54;96614.63;;;5.94;77.61
56142;BME280;42018;48.588;10.836;2023-04-20T01:17:39;96611.00;;;5.95;78.38
56142;BME280;42018;48.588;10.836;2023-04-20T01:20:25;96607.59;;;5.83;77.93
56142;BME280;42018;48.588;10.836;2023-04-20T01:23:10;96609.09;;;5.79;79.37
56142;BME280;42018;48.588;10.836;2023-04-20T01:25:55;96603.59;;;5.63;80.11
56142;BME280;42018;48.588;10.836;2023-04-20T01:28:40;96595.47;;;5.65;79.68
56142;BME280;42018;48.588;10.836;2023-04-20T01:31:26;96586.56;;;5.66;79.40
56142;BME280;42018;48.588;10.836;2023-04-20T01:34:11;96589.53;;;5.69;79.87
56142;BME280;42018;48.588;10.836;2023-04-20T01:36:56;96589.50;;;5.86;79.45
56142;BME280;42018;48.588;10.836;2023-04-20T01:39:42;96586.34;;;6.01;78.26
56142;BME280;42018;48.588;10.836;2023-04-20T01:42:27;96588.31;;;5.77;78.42
56142;BME280;42018;48.588;10.836;2023-04-20T01:45:12;96586.06;;;5.69;78.57
56142;BME280;42018;48.588;10.836;2023-04-20T01:47:59;96577.56;;;5.79;79.49
56142;BME280;42018;48.588;10.836;2023-04-20T01:50:44;96575.44;;;5.92;77.48
56142;BME280;42018;48.588;10.836;2023-04-20T01:53:29;96568.09;;;5.78;78.22
56142;BME280;42018;48.588;10.836;2023-04-20T01:56:15;96576.53;;;5.63;78.58
56142;BME280;42018;48.588;10.836;2023-04-20T01:59:00;96570.00;;;5.82;78.60
56142;BME280;42018;48.588;10.836;2023-04-20T02:01:45;96566.81;;;5.80;78.90
56142;BME280;42018;48.588;10.836;2023-04-20T02:04:30;96570.38;;;5.57;79.06
56142;BME280;42018;48.588;10.836;2023-04-20T02:07:16;96561.56;;;5.63;79.40
56142;BME280;42018;48.588;10.836;2023-04-20T02:10:02;96563.53;;;5.56;78.87
56142;BME280;42018;48.588;10.836;2023-04-20T02:12:48;96553.56;;;5.41;77.80
56142;BME280;42018;48.588;10.836;2023-04-20T02:15:33;96554.06;;;5.55;78.51
56142;BME280;42018;48.588;10.836;2023-04-20T02:18:19;96548.31;;;5.75;77.78
56142;BME280;42018;48.588;10.836;2023-04-20T02:21:05;96562.91;;;5.83;77.41
56142;BME280;42018;48.588;10.836;2023-04-20T02:23:50;96569.59;;;5.90;76.91
56142;BME280;42018;48.588;10.836;2023-04-20T02:26:36;96567.16;;;5.84;75.71
56142;BME280;42018;48.588;10.836;2023-04-20T02:29:21;96572.94;;;5.86;76.25
56142;BME280;42018;48.588;10.836;2023-04-20T02:32:06;96570.19;;;6.09;73.51
56142;BME280;42018;48.588;10.836;2023-04-20T02:34:52;96561.47;;;5.92;74.26
56142;BME280;42018;48.588;10.836;2023-04-20T02:37:37;96563.16;;;5.81;75.18
56142;BME280;42018;48.588;10.836;2023-04-20T02:40:22;96568.97;;;5.66;76.11
56142;BME280;42018;48.588;10.836;2023-04-20T02:43:07;96572.81;;;5.30;76.66
56142;BME280;42018;48.588;10.836;2023-04-20T02:45:53;96560.91;;;5.56;77.66
56142;BME280;42018;48.588;10.836;2023-04-20T02:48:38;96546.75;;;5.74;76.21
56142;BME280;42018;48.588;10.836;2023-04-20T02:51:23;96547.75;;;5.90;75.86
56142;BME280;42018;48.588;10.836;2023-04-20T02:54:08;96541.97;;;5.88;75.22
56142;BME280;42018;48.588;10.836;2023-04-20T02:56:54;96544.59;;;5.88;75.50
56142;BME280;42018;48.588;10.836;2023-04-20T02:59:39;96538.59;;;5.75;76.25
56142;BME280;42018;48.588;10.836;2023-04-20T03:02:24;96541.66;;;5.84;76.93
56142;BME280;42018;48.588;10.836;2023-04-20T03:05:09;96547.91;;;5.83;75.53
56142;BME280;42018;48.588;10.836;2023-04-20T03:07:55;96542.44;;;5.68;75.36
56142;BME280;42018;48.588;10.836;2023-04-20T03:10:40;96552.47;;;5.71;75.73
56142;BME280;42018;48.588;10.836;2023-04-20T03:13:25;96547.16;;;5.66;74.66
56142;BME280;42018;48.588;10.836;2023-04-20T03:16:11;96545.69;;;5.75;74.92
56142;BME280;42018;48.588;10.836;2023-04-20T03:18:56;96540.13;;;5.88;74.38
56142;BME280;42018;48.588;10.836;2023-04-20T03:21:43;96536.72;;;5.88;73.70
56142;BME280;42018;48.588;10.836;2023-04-20T03:24:28;96535.28;;;5.97;74.33
56142;BME280;42018;48.588;10.836;2023-04-20T03:27:13;96531.94;;;6.02;75.55
56142;BME280;42018;48.588;10.836;2023-04-20T03:29:58;96530.91;;;6.03;75.18
56142;BME280;42018;48.588;10.836;2023-04-20T03:32:44;96524.13;;;6.07;74.47
56142;BME280;42018;48.588;10.836;2023-04-20T03:35:30;96524.09;;;5.90;74.30
56142;BME280;42018;48.588;10.836;2023-04-20T03:38:15;96527.47;;;5.85;74.53
56142;BME280;42018;48.588;10.836;2023-04-20T03:41:00;96516.47;;;5.71;75.25
56142;BME280;42018;48.588;10.836;2023-04-20T03:43:46;96522.22;;;5.51;75.70
56142;BME280;42018;48.588;10.836;2023-04-20T03:46:31;96520.28;;;5.47;75.20
56142;BME280;42018;48.588;10.836;2023-04-20T03:49:16;96514.97;;;5.59;76.26
56142;BME280;42018;48.588;10.836;2023-04-20T03:52:01;96524.03;;;5.68;75.11
56142;BME280;42018;48.588;10.836;2023-04-20T03:54:47;96512.97;;;5.66;75.93
56142;BME280;42018;48.588;10.836;2023-04-20T03:57:32;96519.50;;;5.63;76.03
56142;BME280;42018;48.588;10.836;2023-04-20T04:00:17;96516.72;;;5.70;75.54
56142;BME280;42018;48.588;10.836;2023-04-20T04:03:03;96513.63;;;5.73;75.11
56142;BME280;42018;48.588;10.836;2023-04-20T04:05:48;96517.03;;;5.73;74.39
56142;BME280;42018;48.588;10.836;2023-04-20T04:08:34;96509.53;;;5.82;73.43
56142;BME280;42018;48.588;10.836;2023-04-20T04:11:19;96511.06;;;5.78;74.37
56142;BME280;42018;48.588;10.836;2023-04-20T04:14:04;96515.91;;;5.52;73.81
56142;BME280;42018;48.588;10.836;2023-04-20T04:16:50;96502.19;;;5.50;74.80
56142;BME280;42018;48.588;10.836;2023-04-20T04:19:35;96497.19;;;5.49;75.22
56142;BME280;42018;48.588;10.836;2023-04-20T04:22:20;96508.88;;;5.58;74.93
56142;BME280;42018;48.588;10.836;2023-04-20T04:25:05;96503.00;;;5.68;74.17
56142;BME280;42018;48.588;10.836;2023-04-20T04:27:51;96505.63;;;5.68;74.74
56142;BME280;42018;48.588;10.836;2023-04-20T04:30:37;96505.63;;;5.51;74.87
56142;BME280;42018;48.588;10.836;2023-04-20T04:33:22;96507.53;;;5.39;75.50
56142;BME280;42018;48.588;10.836;2023-04-20T04:36:09;96513.44;;;5.63;75.36
56142;BME280;42018;48.588;10.836;2023-04-20T04:38:54;96511.78;;;5.57;75.25
56142;BME280;42018;48.588;10.836;2023-04-20T04:41:39;96512.09;;;5.60;74.93
56142;BME280;42018;48.588;10.836;2023-04-20T04:44:25;96519.16;;;5.43;75.08
56142;BME280;42018;48.588;10.836;2023-04-20T04:47:12;96510.56;;;5.31;76.60
56142;BME280;42018;48.588;10.836;2023-04-20T04:49:58;96512.41;;;5.47;75.24
56142;BME280;42018;48.588;10.836;2023-04-20T04:52:44;96504.53;;;5.64;73.64
56142;BME280;42018;48.588;10.836;2023-04-20T04:55:30;96501.56;;;5.60;72.96
56142;BME280;42018;48.588;10.836;2023-04-20T04:58:15;96504.13;;;5.55;73.62
56142;BME280;42018;48.588;10.836;2023-04-20T05:01:00;96512.47;;;5.35;73.59
56142;BME280;42018;48.588;10.836;2023-04-20T05:03:45;96512.63;;;5.28;73.48
56142;BME280;42018;48.588;10.836;2023-04-20T05:06:31;96509.19;;;5.28;74.84
56142;BME280;42018;48.588;10.836;2023-04-20T05:09:16;96507.75;;;5.20;73.98
56142;BME280;42018;48.588;10.836;2023-04-20T05:12:01;96505.06;;;5.32;73.81
56142;BME280;42018;48.588;10.836;2023-04-20T05:14:47;96505.22;;;5.25;73.99
56142;BME280;42018;48.588;10.836;2023-04-20T05:17:33;96506.25;;;5.24;73.57
56142;BME280;42018;48.588;10.836;2023-04-20T05:20:18;96500.69;;;5.21;74.49
56142;BME280;42018;48.588;10.836;2023-04-20T05:23:04;96497.47;;;5.19;74.55
56142;BME280;42018;48.588;10.836;2023-04-20T05:25:49;96499.69;;;5.10;74.57
56142;BME280;42018;48.588;10.836;2023-04-20T05:28:35;96502.59;;;4.97;75.01
56142;BME280;42018;48.588;10.836;2023-04-20T05:31:20;96498.44;;;5.13;75.73
56142;BME280;42018;48.588;10.836;2023-04-20T05:34:05;96498.94;;;5.26;75.56
56142;BME280;42018;48.588;10.836;2023-04-20T05:36:51;96502.25;;;5.22;75.37
56142;BME280;42018;48.588;10.836;2023-04-20T05:39:36;96504.69;;;5.12;75.47
56142;BME280;42018;48.588;10.836;2023-04-20T05:42:22;96510.00;;;5.00;76.26
56142;BME280;42018;48.588;10.836;2023-04-20T05:45:07;96506.06;;;5.14;76.43
56142;BME280;42018;48.588;10.836;2023-04-20T05:47:55;96508.19;;;5.00;77.27
56142;BME280;42018;48.588;10.836;2023-04-20T05:50:41;96506.22;;;5.08;77.36
56142;BME280;42018;48.588;10.836;2023-04-20T05:53:26;96502.91;;;5.29;76.88
56142;BME280;42018;48.588;10.836;2023-04-20T05:56:11;96504.91;;;5.39;76.87
56142;BME280;42018;48.588;10.836;2023-04-20T05:58:58;96504.66;;;5.40;76.02
56142;BME280;42018;48.588;10.836;2023-04-20T06:01:44;96499.81;;;5.49;76.21
56142;BME280;42018;48.588;10.836;2023-04-20T06:04:29;96503.56;;;5.53;76.26
56142;BME280;42018;48.588;10.836;2023-04-20T06:07:14;96504.50;;;5.47;77.33
56142;BME280;42018;48.588;10.836;2023-04-20T06:10:00;96512.28;;;5.25;77.15
56142;BME280;42018;48.588;10.836;2023-04-20T06:12:46;96514.38;;;5.40;77.05
56142;BME280;42018;48.588;10.836;2023-04-20T06:15:31;96508.75;;;5.48;76.71
56142;BME280;42018;48.588;10.836;2023-04-20T06:18:17;96517.81;;;5.57;76.36
56142;BME280;42018;48.588;10.836;2023-04-20T06:21:02;96515.19;;;5.57;76.60
56142;BME280;42018;48.588;10.836;2023-04-20T06:23:48;96516.63;;;5.48;76.90
56142;BME280;42018;48.588;10.836;2023-04-20T06:26:33;96519.09;;;5.38;77.03
56142;BME280;42018;48.588;10.836;2023-04-20T06:29:18;96518.44;;;5.47;78.15
56142;BME280;42018;48.588;10.836;2023-04-20T06:32:03;96520.75;;;5.44;77.67
56142;BME280;42018;48.588;10.836;2023-04-20T06:34:49;96514.41;;;5.57;77.74
56142;BME280;42018;48.588;10.836;2023-04-20T06:37:36;96514.97;;;5.59;77.69
56142;BME280;42018;48.588;10.836;2023-04-20T06:40:22;96512.03;;;5.55;78.92
56142;BME280;42018;48.588;10.836;2023-04-20T06:43:07;96507.22;;;5.69;78.52
56142;BME280;42018;48.588;10.836;2023-04-20T06:45:52;96511.06;;;5.78;77.62
56142;BME280;42018;48.588;10.836;2023-04-20T06:48:37;96501.47;;;5.72;78.76
56142;BME280;42018;48.588;10.836;2023-04-20T06:51:23;96509.47;;;5.60;79.42
56142;BME280;42018;48.588;10.836;2023-04-20T06:54:08;96502.84;;;5.74;79.35
56142;BME280;42018;48.588;10.836;2023-04-20T06:56:54;96508.00;;;5.86;79.19
56142;BME280;42018;48.588;10.836;2023-04-20T06:59:39;96504.09;;;5.89;79.25
56142;BME280;42018;48.588;10.836;2023-04-20T07:02:24;96492.72;;;5.83;79.79
56142;BME280;42018;48.588;10.836;2023-04-20T07:05:10;96495.75;;;5.75;80.43
56142;BME280;42018;48.588;10.836;2023-04-20T07:07:55;96502.59;;;5.76;80.24
56142;BME280;42018;48.588;10.836;2023-04-20T07:10:41;96502.78;;;5.69;80.50
56142;BME280;42018;48.588;10.836;2023-04-20T07:13:26;96489.78;;;5.46;81.12
56142;BME280;42018;48.588;10.836;2023-04-20T07:16:14;96499.66;;;5.39;81.83
56142;BME280;42018;48.588;10.836;2023-04-20T07:19:00;96498.84;;;5.21;83.63
56142;BME280;42018;48.588;10.836;2023-04-20T07:21:45;96500.91;;;5.19;83.54
56142;BME280;42018;48.588;10.836;2023-04-20T07:24:30;96501.97;;;5.35;83.63
56142;BME280;42018;48.588;10.836;2023-04-20T07:27:16;96505.56;;;5.46;83.33
56142;BME280;42018;48.588;10.836;2023-04-20T07:30:01;96496.16;;;5.67;83.31
56142;BME280;42018;48.588;10.836;2023-04-20T07:32:47;96487.56;;;5.71;82.35
56142;BME280;42018;48.588;10.836;2023-04-20T07:35:33;96494.31;;;5.67;82.99
56142;BME280;42018;48.588;10.836;2023-04-20T07:38:18;96499.00;;;5.65;83.48
56142;BME280;42018;48.588;10.836;2023-04-20T07:41:08;96505.31;;;5.64;83.90
56142;BME280;42018;48.588;10.836;2023-04-20T07:43:54;96502.78;;;5.69;83.80
56142;BME280;42018;48.588;10.836;2023-04-20T07:46:40;96502.22;;;5.67;83.52
56142;BME280;42018;48.588;10.836;2023-04-20T07:49:25;96499.44;;;5.74;84.19
56142;BME280;42018;48.588;10.836;2023-04-20T07:52:11;96495.53;;;5.93;83.67
56142;BME280;42018;48.588;10.836;2023-04-20T07:54:56;96499.03;;;5.99;83.50
56142;BME280;42018;48.588;10.836;2023-04-20T07:57:43;96492.50;;;6.02;83.54
56142;BME280;42018;48.588;10.836;2023-04-20T08:00:28;96497.75;;;5.85;84.03
56142;BME280;42018;48.588;10.836;2023-04-20T08:03:14;96496.88;;;5.96;83.86
56142;BME280;42018;48.588;10.836;2023-04-20T08:05:59;96499.56;;;6.01;83.60
56142;BME280;42018;48.588;10.836;2023-04-20T08:08:44;96501.03;;;6.09;83.35
56142;BME280;42018;48.588;10.836;2023-04-20T08:11:30;96504.81;;;6.18;82.74
56142;BME280;42018;48.588;10.836;2023-04-20T08:14:15;96500.81;;;6.15;82.36
56142;BME280;42018;48.588;10.836;2023-04-20T08:17:00;96503.75;;;6.19;82.59
56142;BME280;42018;48.588;10.836;2023-04-20T08:19:45;96492.22;;;6.20;82.55
56142;BME280;42018;48.588;10.836;2023-04-20T08:22:31;96497.16;;;6.16;82.20
56142;BME280;42018;48.588;10.836;2023-04-20T08:25:17;96490.38;;;6.20;82.18
56142;BME280;42018;48.588;10.836;2023-04-20T08:28:02;96487.19;;;6.18;82.77
56142;BME280;42018;48.588;10.836;2023-04-20T08:30:48;96499.47;;;6.30;82.40
56142;BME280;42018;48.588;10.836;2023-04-20T08:33:33;96492.03;;;6.27;82.26
56142;BME280;42018;48.588;10.836;2023-04-20T08:36:18;96495.06;;;6.18;82.50
56142;BME280;42018;48.588;10.836;2023-04-20T08:39:05;96493.50;;;6.17;82.22
56142;BME280;42018;48.588;10.836;2023-04-20T08:41:51;96493.84;;;6.26;82.14
56142;BME280;42018;48.588;10.836;2023-04-20T08:44:39;96487.91;;;6.14;82.42
56142;BME280;42018;48.588;10.836;2023-04-20T08:47:24;96484.56;;;6.18;82.78
56142;BME280;42018;48.588;10.836;2023-04-20T08:50:11;96481.66;;;6.37;82.00
56142;BME280;42018;48.588;10.836;2023-04-20T08:52:57;96480.34;;;6.39;82.01
56142;BME280;42018;48.588;10.836;2023-04-20T08:55:42;96480.16;;;6.46;82.13
56142;BME280;42018;48.588;10.836;2023-04-20T08:58:28;96469.69;;;6.73;82.95
56142;BME280;42018;48.588;10.836;2023-04-20T09:01:14;96465.81;;;6.81;81.17
56142;BME280;42018;48.588;10.836;2023-04-20T09:04:00;96469.94;;;6.71;82.47
56142;BME280;42018;48.588;10.836;2023-04-20T09:06:46;96468.84;;;6.67;82.33
56142;BME280;42018;48.588;10.836;2023-04-20T09:09:34;96475.44;;;6.70;81.81
56142;BME280;42018;48.588;10.836;2023-04-20T09:12:19;96473.78;;;6.64;81.48
56142;BME280;42018;48.588;10.836;2023-04-20T09:15:04;96463.59;;;6.45;81.33
56142;BME280;42018;48.588;10.836;2023-04-20T09:17:50;96457.22;;;6.41;81.64
56142;BME280;42018;48.588;10.836;2023-04-20T09:20:35;96460.28;;;6.55;81.77
56142;BME280;42018;48.588;10.836;2023-04-20T09:23:21;96456.00;;;6.49;82.29
56142;BME280;42018;48.588;10.836;2023-04-20T09:26:06;96454.94;;;6.50;82.15
56142;BME280;42018;48.588;10.836;2023-04-20T09:28:51;96455.56;;;6.57;81.05
56142;BME280;42018;48.588;10.836;2023-04-20T09:31:36;96446.63;;;6.58;81.39
56142;BME280;42018;48.588;10.836;2023-04-20T09:34:22;96454.03;;;6.39;80.47
56142;BME280;42018;48.588;10.836;2023-04-20T09:37:08;96455.94;;;6.44;81.16
56142;BME280;42018;48.588;10.836;2023-04-20T09:39:54;96459.59;;;6.43;80.95
56142;BME280;42018;48.588;10.836;2023-04-20T09:42:42;96456.00;;;6.49;81.32
56142;BME280;42018;48.588;10.836;2023-04-20T09:45:28;96459.69;;;6.48;80.96
56142;BME280;42018;48.588;10.836;2023-04-20T09:48:13;96442.34;;;6.52;80.98
56142;BME280;42018;48.588;10.836;2023-04-20T09:51:02;96437.31;;;6.72;82.62
56142;BME280;42018;48.588;10.836;2023-04-20T09:53:48;96428.91;;;6.76;81.97
56142;BME280;42018;48.588;10.836;2023-04-20T09:56:34;96422.00;;;6.96;80.53
56142;BME280;42018;48.588;10.836;2023-04-20T09:59:19;96412.25;;;6.97;80.18
56142;BME280;42018;48.588;10.836;2023-04-20T10:02:09;96410.66;;;6.96;80.21
56142;BME280;42018;48.588;10.836;2023-04-20T10:04:57;96403.69;;;6.80;78.61
56142;BME280;42018;48.588;10.836;2023-04-20T10:07:43;96413.75;;;6.61;78.56
56142;BME280;42018;48.588;10.836;2023-04-20T10:10:28;96415.06;;;6.58;78.35
56142;BME280;42018;48.588;10.836;2023-04-20T10:13:14;96423.84;;;6.47;77.93
56142;BME280;42018;48.588;10.836;2023-04-20T10:15:59;96419.13;;;6.44;78.12
56142;BME280;42018;48.588;10.836;2023-04-20T10:18:57;96418.56;;;6.42;78.81
56142;BME280;42018;48.588;10.836;2023-04-20T10:21:44;96410.78;;;6.52;78.29
56142;BME280;42018;48.588;10.836;2023-04-20T10:24:29;96410.69;;;6.69;78.42
56142;BME280;42018;48.588;10.836;2023-04-20T10:27:18;96412.47;;;6.90;77.92
56142;BME280;42018;48.588;10.836;2023-04-20T10:30:08;96404.94;;;7.04;77.20
56142;BME280;42018;48.588;10.836;2023-04-20T10:33:03;96403.53;;;6.91;77.11
56142;BME280;42018;48.588;10.836;2023-04-20T10:35:50;96394.28;;;6.62;78.12
56142;BME280;42018;48.588;10.836;2023-04-20T10:38:35;96386.28;;;6.52;77.95
56142;BME280;42018;48.588;10.836;2023-04-20T10:41:21;96386.94;;;6.37;77.62
56142;BME280;42018;48.588;10.836;2023-04-20T10:44:07;96387.59;;;6.27;78.40
56142;BME280;42018;48.588;10.836;2023-04-20T10:46:53;96390.66;;;6.41;78.55
56142;BME280;42018;48.588;10.836;2023-04-20T10:49:38;96404.72;;;6.52;77.78
56142;BME280;42018;48.588;10.836;2023-04-20T10:52:33;96398.88;;;6.50;77.58
56142;BME280;42018;48.588;10.836;2023-04-20T10:55:21;96409.91;;;6.46;77.62
56142;BME280;42018;48.588;10.836;2023-04-20T10:58:06;96407.69;;;6.60;77.83
56142;BME280;42018;48.588;10.836;2023-04-20T11:01:02;96407.84;;;6.48;77.73
56142;BME280;42018;48.588;10.836;2023-04-20T11:03:48;96412.63;;;6.52;77.60
56142;BME280;42018;48.588;10.836;2023-04-20T11:06:35;96401.03;;;6.53;77.86
56142;BME280;42018;48.588;10.836;2023-04-20T11:09:22;96408.19;;;6.57;78.13
56142;BME280;42018;48.588;10.836;2023-04-20T11:12:10;96404.31;;;6.65;77.59
56142;BME280;42018;48.588;10.836;2023-04-20T11:15:00;96413.03;;;6.65;77.39
56142;BME280;42018;48.588;10.836;2023-04-20T11:17:47;96406.09;;;6.59;76.66
56142;BME280;42018;48.588;10.836;2023-04-20T11:20:32;96407.69;;;6.60;77.59
56142;BME280;42018;48.588;10.836;2023-04-20T11:23:18;96405.00;;;6.55;78.07
56142;BME280;42018;48.588;10.836;2023-04-20T11:26:03;96408.97;;;6.58;77.61
56142;BME280;42018;48.588;10.836;2023-04-20T11:28:54;96395.47;;;6.49;78.20
56142;BME280;42018;48.588;10.836;2023-04-20T11:32:38;96387.22;;;6.67;78.27
56142;BME280;42018;48.588;10.836;2023-04-20T11:35:23;96397.72;;;6.62;77.76
56142;BME280;42018;48.588;10.836;2023-04-20T11:38:09;96385.97;;;6.75;77.85
56142;BME280;42018;48.588;10.836;2023-04-20T11:40:54;96397.66;;;6.84;77.69
56142;BME280;42018;48.588;10.836;2023-04-20T11:43:40;96394.56;;;6.92;77.77
56142;BME280;42018;48.588;10.836;2023-04-20T11:46:27;96384.28;;;6.91;77.51
56142;BME280;42018;48.588;10.836;2023-04-20T11:49:16;96386.38;;;6.89;77.65
56142;BME280;42018;48.588;10.836;2023-04-20T11:52:01;96376.91;;;6.93;77.45
56142;BME280;42018;48.588;10.836;2023-04-20T11:54:47;96368.00;;;6.94;77.33
56142;BME280;42018;48.588;10.836;2023-04-20T11:57:33;96361.97;;;6.99;77.24
56142;BME280;42018;48.588;10.836;2023-04-20T12:00:19;96360.25;;;6.82;78.60
56142;BME280;42018;48.588;10.836;2023-04-20T12:03:04;96354.84;;;6.94;78.16
56142;BME280;42018;48.588;10.836;2023-04-20T12:05:49;96355.63;;;6.94;78.26
56142;BME280;42018;48.588;10.836;2023-04-20T12:08:35;96360.16;;;7.04;77.71
56142;BME280;42018;48.588;10.836;2023-04-20T12:11:21;96357.78;;;7.03;77.63
56142;BME280;42018;48.588;10.836;2023-04-20T12:14:07;96354.56;;;6.95;77.77
56142;BME280;42018;48.588;10.836;2023-04-20T12:16:52;96360.31;;;7.25;77.81
56142;BME280;42018;48.588;10.836;2023-04-20T12:19:38;96362.72;;;7.26;77.21
56142;BME280;42018;48.588;10.836;2023-04-20T12:22:23;96360.53;;;7.18;77.32
56142;BME280;42018;48.588;10.836;2023-04-20T12:25:08;96366.44;;;7.35;77.26
56142;BME280;42018;48.588;10.836;2023-04-20T12:27:54;96362.88;;;7.14;76.61
56142;BME280;42018;48.588;10.836;2023-04-20T12:30:39;96369.06;;;7.30;77.10
56142;BME280;42018;48.588;10.836;2023-04-20T12:33:25;96365.72;;;7.45;76.98
56142;BME280;42018;48.588;10.836;2023-04-20T12:36:10;96371.84;;;7.56;76.87
56142;BME280;42018;48.588;10.836;2023-04-20T12:38:55;96376.19;;;7.72;75.58
56142;BME280;42018;48.588;10.836;2023-04-20T12:41:41;96372.44;;;7.68;75.71
56142;BME280;42018;48.588;10.836;2023-04-20T12:44:27;96369.28;;;7.71;75.41
56142;BME280;42018;48.588;10.836;2023-04-20T12:47:12;96371.19;;;7.76;75.24
56142;BME280;42018;48.588;10.836;2023-04-20T12:49:57;96374.91;;;7.80;75.23
56142;BME280;42018;48.588;10.836;2023-04-20T12:52:43;96377.31;;;7.86;74.87
56142;BME280;42018;48.588;10.836;2023-04-20T12:55:28;96379.97;;;7.91;74.83
56142;BME280;42018;48.588;10.836;2023-04-20T12:58:13;96373.13;;;7.96;74.29
56142;BME280;42018;48.588;10.836;2023-04-20T13:01:00;96372.59;;;7.94;74.69
56142;BME280;42018;48.588;10.836;2023-04-20T13:03:45;96380.97;;;7.85;75.08
56142;BME280;42018;48.588;10.836;2023-04-20T13:06:30;96377.59;;;7.95;74.42
56142;BME280;42018;48.588;10.836;2023-04-20T13:09:16;96375.69;;;7.85;75.14
56142;BME280;42018;48.588;10.836;2023-04-20T13:12:02;96374.34;;;7.78;75.42
56142;BME280;42018;48.588;10.836;2023-04-20T13:14:48;96376.53;;;7.91;75.57
56142;BME280;42018;48.588;10.836;2023-04-20T13:17:33;96370.75;;;7.94;75.04
56142;BME280;42018;48.588;10.836;2023-04-20T13:20:19;96365.19;;;7.96;75.20
56142;BME280;42018;48.588;10.836;2023-04-20T13:23:04;96361.72;;;7.80;75.22
56142;BME280;42018;48.588;10.836;2023-04-20T13:25:50;96369.91;;;7.83;74.67
56142;BME280;42018;48.588;10.836;2023-04-20T13:28:36;96362.56;;;7.90;74.90
56142;BME280;42018;48.588;10.836;2023-04-20T13:31:24;96358.78;;;7.76;75.43
56142;BME280;42018;48.588;10.836;2023-04-20T13:34:09;96354.69;;;7.48;76.33
56142;BME280;42018;48.588;10.836;2023-04-20T13:36:55;96348.72;;;7.68;76.50
56142;BME280;42018;48.588;10.836;2023-04-20T13:39:42;96352.00;;;7.90;75.66
56142;BME280;42018;48.588;10.836;2023-04-20T13:42:27;96345.69;;;7.97;75.28
56142;BME280;42018;48.588;10.836;2023-04-20T13:45:13;96349.81;;;7.72;75.76
56142;BME280;42018;48.588;10.836;2023-04-20T13:47:58;96338.81;;;7.90;75.56
56142;BME280;42018;48.588;10.836;2023-04-20T13:50:43;96332.25;;;7.98;75.56
56142;BME280;42018;48.588;10.836;2023-04-20T13:53:29;96339.28;;;7.82;75.68
56142;BME280;42018;48.588;10.836;2023-04-20T13:56:15;96330.88;;;7.85;75.55
56142;BME280;42018;48.588;10.836;2023-04-20T13:59:00;96325.66;;;8.01;75.64
56142;BME280;42018;48.588;10.836;2023-04-20T14:01:48;96318.03;;;8.09;75.35
56142;BME280;42018;48.588;10.836;2023-04-20T14:04:33;96328.09;;;8.23;75.53
56142;BME280;42018;48.588;10.836;2023-04-20T14:07:18;96323.84;;;8.22;74.76
56142;BME280;42018;48.588;10.836;2023-04-20T14:10:05;96322.50;;;8.09;74.87
56142;BME280;42018;48.588;10.836;2023-04-20T14:12:50;96325.66;;;8.11;75.20
56142;BME280;42018;48.588;10.836;2023-04-20T14:15:36;96330.44;;;8.14;75.30
56142;BME280;42018;48.588;10.836;2023-04-20T14:18:22;96319.09;;;8.13;74.99
56142;BME280;42018;48.588;10.836;2023-04-20T14:21:07;96323.88;;;8.27;75.01
56142;BME280;42018;48.588;10.836;2023-04-20T14:23:52;96313.06;;;8.23;74.52
56142;BME280;42018;48.588;10.836;2023-04-20T14:26:39;96315.97;;;8.32;74.55
56142;BME280;42018;48.588;10.836;2023-04-20T14:29:25;96319.41;;;8.32;74.64
56142;BME280;42018;48.588;10.836;2023-04-20T14:32:11;96316.84;;;8.48;74.68
56142;BME280;42018;48.588;10.836;2023-04-20T14:34:56;96306.00;;;8.49;74.14
56142;BME280;42018;48.588;10.836;2023-04-20T14:37:42;96308.63;;;8.39;74.78